Time;durP1;ratioP1;P1;durP2;ratioP2;P2;SDS_P1;SDS_P2;PMS_P1;PMS_P2;Temp;Humidity;BMP_temperature;BMP_pressure;BME280_temperature;BME280_humidity;BME280_pressure;Samples;Min_cycle;Max_cycle;Signal;HPM_P1;HPM_P2
2023/10/31 00:00:22;;;;;;;2.38;1.88;;;15.20;99.90;;;;;;2097892;28;20027;-73
2023/10/31 00:01:23;;;;;;;1.92;1.83;;;15.10;99.90;;;;;;2098773;28;20107;-74
2023/10/31 00:02:23;;;;;;;4.10;1.98;;;15.20;99.90;;;;;;2097270;28;20043;-74
2023/10/31 00:03:24;;;;;;;2.15;1.95;;;15.20;99.90;;;;;;2098827;28;20699;-74
2023/10/31 00:04:24;;;;;;;2.35;1.92;;;15.10;99.90;;;;;;2099054;28;20039;-74
2023/10/31 00:05:25;;;;;;;1.80;1.70;;;15.10;99.90;;;;;;2097616;28;20035;-74
2023/10/31 00:06:25;;;;;;;2.78;2.40;;;15.10;99.90;;;;;;2097947;28;20037;-74
2023/10/31 00:07:26;;;;;;;3.53;2.45;;;15.00;99.90;;;;;;2098872;28;20032;-74
2023/10/31 00:08:26;;;;;;;2.33;2.10;;;15.10;99.90;;;;;;2098143;28;20103;-74
2023/10/31 00:09:27;;;;;;;2.42;2.22;;;15.00;99.90;;;;;;2099852;28;20028;-75
2023/10/31 00:10:27;;;;;;;3.35;2.10;;;15.00;99.90;;;;;;2098766;28;20600;-74
2023/10/31 00:11:28;;;;;;;2.47;2.28;;;15.00;99.90;;;;;;2102212;28;20035;-74
2023/10/31 00:12:29;;;;;;;3.70;2.45;;;15.00;99.90;;;;;;2100828;28;20510;-73
2023/10/31 00:13:29;;;;;;;2.13;2.03;;;14.90;99.90;;;;;;2099592;28;20459;-73
2023/10/31 00:14:30;;;;;;;2.47;2.38;;;14.90;99.90;;;;;;2098148;28;20496;-73
2023/10/31 00:15:30;;;;;;;3.10;2.90;;;14.90;99.90;;;;;;2098435;28;20032;-74
2023/10/31 00:16:31;;;;;;;3.53;3.20;;;14.90;99.90;;;;;;2100326;28;20036;-74
2023/10/31 00:17:31;;;;;;;3.33;3.13;;;14.80;99.90;;;;;;2098488;28;20472;-74
2023/10/31 00:18:32;;;;;;;3.80;3.50;;;14.80;99.90;;;;;;2097489;28;20044;-73
2023/10/31 00:19:32;;;;;;;3.42;3.08;;;14.70;99.90;;;;;;2098112;28;20865;-74
2023/10/31 00:20:33;;;;;;;3.67;3.47;;;14.70;99.90;;;;;;2099696;28;20028;-73
2023/10/31 00:21:34;;;;;;;3.65;3.45;;;14.70;99.90;;;;;;2097124;28;20031;-74
2023/10/31 00:22:34;;;;;;;3.85;3.65;;;14.70;99.90;;;;;;2099060;28;20024;-73
2023/10/31 00:23:43;;;;;;;4.00;3.70;;;14.60;99.90;;;;;;2099189;28;20059;-74
2023/10/31 00:24:44;;;;;;;4.75;4.40;;;14.60;99.90;;;;;;2098313;28;20020;-73
2023/10/31 00:25:44;;;;;;;4.57;4.18;;;14.60;99.90;;;;;;2101635;28;20109;-73
2023/10/31 00:26:45;;;;;;;4.97;4.57;;;14.60;99.90;;;;;;2101672;28;20042;-74
2023/10/31 00:27:45;;;;;;;4.05;3.75;;;14.50;99.90;;;;;;2098451;28;20118;-73
2023/10/31 00:28:46;;;;;;;4.72;4.43;;;14.50;99.90;;;;;;2099256;28;20036;-74
2023/10/31 00:29:46;;;;;;;3.95;3.47;;;14.50;99.90;;;;;;2096664;28;20388;-73
2023/10/31 00:30:47;;;;;;;4.60;4.20;;;14.50;99.90;;;;;;2098415;28;20479;-74
2023/10/31 00:31:47;;;;;;;6.00;5.50;;;14.40;99.90;;;;;;2097567;28;20532;-73
2023/10/31 00:32:48;;;;;;;5.20;4.80;;;14.40;99.90;;;;;;2099028;28;20054;-73
2023/10/31 00:33:48;;;;;;;4.10;3.70;;;14.40;99.90;;;;;;2098671;28;20079;-74
2023/10/31 00:34:49;;;;;;;3.88;3.58;;;14.40;99.90;;;;;;2097357;28;20099;-75
2023/10/31 00:35:49;;;;;;;4.13;3.72;;;14.40;99.90;;;;;;2099007;28;20032;-75
2023/10/31 00:36:50;;;;;;;2.95;2.75;;;14.30;99.90;;;;;;2101549;28;20083;-73
2023/10/31 00:37:51;;;;;;;3.15;2.90;;;14.30;99.90;;;;;;2100767;28;20568;-73
2023/10/31 00:38:51;;;;;;;2.80;2.63;;;14.30;99.90;;;;;;2098390;28;20082;-74
2023/10/31 00:39:52;;;;;;;3.80;2.20;;;14.30;99.90;;;;;;2098664;28;20603;-73
2023/10/31 00:40:52;;;;;;;1.95;1.83;;;14.20;99.90;;;;;;2099151;28;20433;-73
2023/10/31 00:41:53;;;;;;;2.95;1.73;;;14.20;99.90;;;;;;2100898;28;20110;-74
2023/10/31 00:42:53;;;;;;;1.95;1.75;;;14.20;99.90;;;;;;2101261;28;20039;-75
2023/10/31 00:43:54;;;;;;;1.67;1.52;;;14.20;99.90;;;;;;2099829;28;20687;-73
2023/10/31 00:44:54;;;;;;;2.30;1.55;;;14.20;99.90;;;;;;2100054;28;20036;-74
2023/10/31 00:45:55;;;;;;;1.42;1.40;;;14.10;99.90;;;;;;2097777;28;20557;-74
2023/10/31 00:46:55;;;;;;;2.10;1.85;;;14.10;99.90;;;;;;2098392;28;20024;-73
2023/10/31 00:47:56;;;;;;;2.63;1.50;;;14.10;99.90;;;;;;2099041;28;20534;-74
2023/10/31 00:48:57;;;;;;;1.90;1.75;;;14.10;99.90;;;;;;2097834;28;20533;-73
2023/10/31 00:49:57;;;;;;;15.52;1.83;;;14.10;99.90;;;;;;2097695;28;20067;-74
2023/10/31 00:51:00;;;;;;;1.30;1.30;;;14.10;99.90;;;;;;2100113;28;20110;-74
2023/10/31 00:52:00;;;;;;;1.55;1.45;;;14.10;99.90;;;;;;2096574;28;20037;-73
2023/10/31 00:53:01;;;;;;;1.30;1.20;;;14.10;99.90;;;;;;2096118;28;20063;-73
2023/10/31 00:54:02;;;;;;;5.38;2.35;;;14.10;99.90;;;;;;2097292;28;20036;-74
2023/10/31 00:55:02;;;;;;;2.00;1.80;;;14.00;99.90;;;;;;2098389;28;20036;-73
2023/10/31 00:56:03;;;;;;;1.52;1.42;;;14.00;99.90;;;;;;2097417;28;20085;-73
2023/10/31 00:57:04;;;;;;;2.75;1.17;;;14.00;99.90;;;;;;2100350;28;20082;-73
2023/10/31 00:58:04;;;;;;;1.45;1.15;;;14.00;99.90;;;;;;2101021;28;20027;-75
2023/10/31 00:59:05;;;;;;;1.33;1.23;;;14.00;99.90;;;;;;2096742;28;20661;-73
2023/10/31 01:00:07;;;;;;;1.48;1.10;;;13.90;99.90;;;;;;2097128;28;20093;-73
2023/10/31 01:01:07;;;;;;;1.08;1.08;;;13.90;99.90;;;;;;2098299;28;20502;-73
2023/10/31 01:02:08;;;;;;;1.30;1.20;;;13.90;99.90;;;;;;2096982;28;20653;-73
2023/10/31 01:03:08;;;;;;;1.38;1.27;;;13.90;99.90;;;;;;2097754;28;20028;-73
2023/10/31 01:04:10;;;;;;;1.17;1.17;;;13.90;99.90;;;;;;2096731;28;20723;-73
2023/10/31 01:05:11;;;;;;;1.27;1.27;;;13.80;99.90;;;;;;2087866;28;20491;-74
2023/10/31 01:06:11;;;;;;;1.67;1.58;;;13.80;99.90;;;;;;2092185;28;20807;-74
2023/10/31 01:07:14;;;;;;;1.50;1.40;;;13.80;99.90;;;;;;2100181;28;20587;-73
2023/10/31 01:08:15;;;;;;;1.52;1.42;;;13.80;99.90;;;;;;2097872;28;20498;-74
2023/10/31 01:09:15;;;;;;;2.05;1.58;;;13.80;99.90;;;;;;2103430;28;20383;-73
2023/10/31 01:10:16;;;;;;;1.65;1.55;;;13.80;99.90;;;;;;2104030;28;20190;-73
2023/10/31 01:11:16;;;;;;;1.58;1.48;;;13.80;99.90;;;;;;2099855;28;20446;-73
2023/10/31 01:12:17;;;;;;;1.90;1.80;;;13.80;99.90;;;;;;2097100;28;20033;-73
2023/10/31 01:13:18;;;;;;;2.10;1.33;;;13.80;99.90;;;;;;2097270;28;20055;-73
2023/10/31 01:14:19;;;;;;;1.70;1.60;;;13.80;99.90;;;;;;2097814;28;20030;-74
2023/10/31 01:15:20;;;;;;;1.75;1.30;;;13.80;99.90;;;;;;2098171;28;20028;-73
2023/10/31 01:16:20;;;;;;;3.63;1.33;;;13.80;99.90;;;;;;2098779;28;20119;-73
2023/10/31 01:17:21;;;;;;;1.05;1.05;;;13.80;99.90;;;;;;2100161;28;20024;-74
2023/10/31 01:18:22;;;;;;;1.50;1.40;;;13.80;99.90;;;;;;2098719;28;20700;-73
2023/10/31 01:19:23;;;;;;;1.65;1.55;;;13.70;99.90;;;;;;2102169;28;20052;-73
2023/10/31 01:20:24;;;;;;;1.58;1.48;;;13.70;99.90;;;;;;2101163;28;20503;-73
2023/10/31 01:21:24;;;;;;;1.92;1.55;;;13.70;99.90;;;;;;2098275;28;20107;-73
2023/10/31 01:22:25;;;;;;;1.95;1.40;;;13.70;99.90;;;;;;2098624;28;20052;-74
2023/10/31 01:23:25;;;;;;;4.60;1.40;;;13.70;99.90;;;;;;2098180;28;20074;-73
2023/10/31 01:24:26;;;;;;;1.95;1.65;;;13.70;99.90;;;;;;2099124;28;20069;-73
2023/10/31 01:25:26;;;;;;;1.60;1.50;;;13.70;99.90;;;;;;2098888;28;20040;-73
2023/10/31 01:26:27;;;;;;;1.73;1.40;;;13.70;99.90;;;;;;2097292;28;20028;-74
2023/10/31 01:27:27;;;;;;;1.73;1.52;;;13.70;99.90;;;;;;2097092;28;20111;-73
2023/10/31 01:28:28;;;;;;;1.77;1.58;;;13.60;99.90;;;;;;2096845;28;20028;-75
2023/10/31 01:29:29;;;;;;;1.50;1.40;;;13.60;99.90;;;;;;2098291;28;20041;-73
2023/10/31 01:30:29;;;;;;;1.77;1.67;;;13.60;99.90;;;;;;2098092;28;20062;-73
2023/10/31 01:31:32;;;;;;;1.20;1.20;;;13.60;99.90;;;;;;2098298;28;20032;-73
2023/10/31 01:32:33;;;;;;;1.73;1.42;;;13.60;99.90;;;;;;2097882;28;20029;-73
2023/10/31 01:33:33;;;;;;;1.55;1.30;;;13.60;99.90;;;;;;2098547;28;20028;-73
2023/10/31 01:34:34;;;;;;;1.20;1.20;;;13.60;99.90;;;;;;2098428;28;20179;-73
2023/10/31 01:35:34;;;;;;;1.70;1.60;;;13.60;99.90;;;;;;2098870;28;20028;-73
2023/10/31 01:36:35;;;;;;;1.85;1.10;;;13.60;99.90;;;;;;2098343;28;20070;-73
2023/10/31 01:37:36;;;;;;;1.33;1.23;;;13.60;99.90;;;;;;2096935;28;20041;-73
2023/10/31 01:38:36;;;;;;;1.48;1.25;;;13.60;99.90;;;;;;2098860;28;20093;-73
2023/10/31 01:39:37;;;;;;;1.70;1.25;;;13.60;99.90;;;;;;2097730;28;20495;-73
2023/10/31 01:40:37;;;;;;;3.15;2.03;;;13.50;99.90;;;;;;2091158;28;20032;-73
2023/10/31 01:41:41;;;;;;;3.17;1.48;;;13.50;99.90;;;;;;2091113;28;20116;-73
2023/10/31 01:42:42;;;;;;;4.07;1.30;;;13.50;99.90;;;;;;2096883;28;20119;-73
2023/10/31 01:43:42;;;;;;;3.03;1.38;;;13.50;99.90;;;;;;2097338;28;20028;-73
2023/10/31 01:44:43;;;;;;;1.77;1.35;;;13.50;99.90;;;;;;2096962;28;20024;-75
2023/10/31 01:45:43;;;;;;;2.22;1.70;;;13.40;99.90;;;;;;2097688;28;20034;-74
2023/10/31 01:46:44;;;;;;;2.13;1.88;;;13.40;99.90;;;;;;2100174;28;20032;-73
2023/10/31 01:47:47;;;;;;;2.05;1.55;;;13.40;99.90;;;;;;2098805;28;20460;-75
2023/10/31 01:48:48;;;;;;;1.83;1.60;;;13.40;99.90;;;;;;2106494;28;20020;-73
2023/10/31 01:49:49;;;;;;;5.28;1.60;;;13.40;99.90;;;;;;2105340;28;20020;-73
2023/10/31 01:50:51;;;;;;;3.55;1.48;;;13.40;99.90;;;;;;2098001;28;20028;-73
2023/10/31 01:51:51;;;;;;;1.45;1.30;;;13.40;99.90;;;;;;2095130;28;20028;-74
2023/10/31 01:52:52;;;;;;;1.90;1.23;;;13.30;99.90;;;;;;2098161;28;20020;-73
2023/10/31 01:53:53;;;;;;;1.95;1.40;;;13.30;99.90;;;;;;2098922;28;20047;-72
2023/10/31 01:54:54;;;;;;;3.35;1.30;;;13.30;99.90;;;;;;2100162;28;20081;-73
2023/10/31 01:55:56;;;;;;;2.17;1.40;;;13.30;99.90;;;;;;2098465;28;20385;-73
2023/10/31 01:56:58;;;;;;;1.63;1.27;;;13.30;99.90;;;;;;2097553;28;20032;-74
2023/10/31 01:57:59;;;;;;;1.85;0.95;;;13.30;99.90;;;;;;2096967;28;20081;-73
2023/10/31 01:59:00;;;;;;;1.92;1.30;;;13.30;99.90;;;;;;2097899;28;20067;-73
2023/10/31 02:00:01;;;;;;;3.15;1.45;;;13.30;99.90;;;;;;2097479;28;20060;-72
2023/10/31 02:01:01;;;;;;;2.17;1.48;;;13.20;99.90;;;;;;2097535;28;20033;-74
2023/10/31 02:02:03;;;;;;;2.83;1.45;;;13.20;99.90;;;;;;2098008;28;20185;-73
2023/10/31 02:03:04;;;;;;;1.95;1.50;;;13.20;99.90;;;;;;2097516;28;20016;-73
2023/10/31 02:04:05;;;;;;;1.10;1.10;;;13.30;99.90;;;;;;2097835;28;20056;-72
2023/10/31 02:05:06;;;;;;;1.58;1.25;;;13.30;99.90;;;;;;2097269;28;20031;-74
2023/10/31 02:06:07;;;;;;;2.97;1.45;;;13.30;99.90;;;;;;2097363;28;20028;-73
2023/10/31 02:07:07;;;;;;;3.13;1.60;;;13.30;99.90;;;;;;2097630;28;20123;-73
2023/10/31 02:08:08;;;;;;;2.40;1.70;;;13.30;99.90;;;;;;2105510;28;20566;-73
2023/10/31 02:09:09;;;;;;;1.65;1.30;;;13.30;99.90;;;;;;2097238;28;20439;-73
2023/10/31 02:10:09;;;;;;;1.40;1.30;;;13.30;99.90;;;;;;2099115;28;20020;-73
2023/10/31 02:11:10;;;;;;;3.10;1.80;;;13.30;99.90;;;;;;2099968;28;20440;-73
2023/10/31 02:12:10;;;;;;;4.65;1.83;;;13.30;99.90;;;;;;2099229;28;20478;-74
2023/10/31 02:13:15;;;;;;;1.50;1.40;;;13.20;99.90;;;;;;2098719;28;20028;-73
2023/10/31 02:14:16;;;;;;;2.22;2.00;;;13.20;99.90;;;;;;2101783;28;20036;-73
2023/10/31 02:15:16;;;;;;;2.55;1.98;;;13.30;99.90;;;;;;2101126;28;20119;-73
2023/10/31 02:16:17;;;;;;;6.47;2.28;;;13.30;99.90;;;;;;2099157;28;20437;-72
2023/10/31 02:17:17;;;;;;;3.53;2.33;;;13.20;99.90;;;;;;2099248;28;20447;-73
2023/10/31 02:18:18;;;;;;;2.53;2.30;;;13.30;99.90;;;;;;2099422;28;20075;-72
2023/10/31 02:19:20;;;;;;;3.38;2.17;;;13.30;99.90;;;;;;2099728;28;20383;-73
2023/10/31 02:20:21;;;;;;;2.65;1.92;;;13.20;99.90;;;;;;2100221;28;20024;-73
2023/10/31 02:21:21;;;;;;;2.30;2.20;;;13.20;99.90;;;;;;2099161;28;20475;-73
2023/10/31 02:22:22;;;;;;;4.22;2.75;;;13.20;99.90;;;;;;2099584;28;20020;-73
2023/10/31 02:23:23;;;;;;;2.95;2.58;;;13.20;99.90;;;;;;2098214;28;20023;-73
2023/10/31 02:24:24;;;;;;;2.55;2.35;;;13.20;99.90;;;;;;2100862;28;20082;-72
2023/10/31 02:25:24;;;;;;;2.75;2.50;;;13.20;99.90;;;;;;2100780;28;20063;-73
2023/10/31 02:26:34;;;;;;;2.95;2.63;;;13.20;99.90;;;;;;2098979;28;20025;-73
2023/10/31 02:27:35;;;;;;;3.40;2.80;;;13.20;99.90;;;;;;2099054;28;20067;-72
2023/10/31 02:28:35;;;;;;;3.92;3.53;;;13.20;99.90;;;;;;2100955;28;20075;-73
2023/10/31 02:29:36;;;;;;;3.53;3.30;;;13.20;99.90;;;;;;2097131;28;20036;-72
2023/10/31 02:30:37;;;;;;;4.32;3.30;;;13.20;99.90;;;;;;2099519;28;20040;-72
2023/10/31 02:31:38;;;;;;;3.85;3.20;;;13.20;99.90;;;;;;2100351;28;20455;-73
2023/10/31 02:32:38;;;;;;;4.63;3.88;;;13.20;99.90;;;;;;2103390;28;20590;-73
2023/10/31 02:33:39;;;;;;;4.07;3.65;;;13.20;99.90;;;;;;2103480;28;20135;-73
2023/10/31 02:34:40;;;;;;;7.95;4.15;;;13.20;99.90;;;;;;2099621;28;20032;-72
2023/10/31 02:35:40;;;;;;;4.38;3.30;;;13.10;99.90;;;;;;2099535;28;20523;-73
2023/10/31 02:36:41;;;;;;;3.72;3.40;;;13.10;99.90;;;;;;2098788;28;20039;-73
2023/10/31 02:37:41;;;;;;;4.25;3.80;;;13.20;99.90;;;;;;2099273;28;20024;-73
2023/10/31 02:38:42;;;;;;;5.38;3.60;;;13.20;99.90;;;;;;2098226;28;20024;-73
2023/10/31 02:39:42;;;;;;;4.38;3.97;;;13.20;99.90;;;;;;2102009;28;20029;-73
2023/10/31 02:40:43;;;;;;;4.57;4.18;;;13.10;99.90;;;;;;2101094;28;20026;-73
2023/10/31 02:41:43;;;;;;;6.65;4.60;;;13.10;99.90;;;;;;2099456;28;20032;-73
2023/10/31 02:42:44;;;;;;;4.63;4.22;;;13.10;99.90;;;;;;2093893;28;20024;-73
2023/10/31 02:43:45;;;;;;;7.03;4.75;;;13.10;99.90;;;;;;2103142;28;20097;-74
2023/10/31 02:44:45;;;;;;;4.60;4.20;;;13.10;99.90;;;;;;2097364;28;20034;-73
2023/10/31 02:45:46;;;;;;;5.15;4.65;;;13.10;99.90;;;;;;2099327;28;20537;-73
2023/10/31 02:46:46;;;;;;;8.40;4.82;;;13.10;99.90;;;;;;2101029;28;20031;-74
2023/10/31 02:47:47;;;;;;;5.13;4.70;;;13.10;99.90;;;;;;2102108;28;20016;-73
2023/10/31 02:48:48;;;;;;;7.00;4.97;;;13.10;99.90;;;;;;2102068;28;20024;-73
2023/10/31 02:49:48;;;;;;;5.95;4.63;;;13.10;99.90;;;;;;2100819;28;20028;-73
2023/10/31 02:50:49;;;;;;;5.32;4.82;;;13.20;99.90;;;;;;2099047;28;20024;-73
2023/10/31 02:51:49;;;;;;;4.72;4.28;;;13.20;99.90;;;;;;2098055;28;20066;-73
2023/10/31 02:52:50;;;;;;;4.68;4.28;;;13.20;99.90;;;;;;2099230;28;20028;-73
2023/10/31 02:53:50;;;;;;;6.30;4.40;;;13.20;99.90;;;;;;2101351;28;20126;-72
2023/10/31 02:54:51;;;;;;;4.50;4.18;;;13.20;99.90;;;;;;2101928;28;20020;-73
2023/10/31 02:55:51;;;;;;;6.13;4.60;;;13.20;99.90;;;;;;2099493;28;20027;-73
2023/10/31 02:56:52;;;;;;;5.40;4.03;;;13.20;99.90;;;;;;2098253;28;20020;-73
2023/10/31 02:57:52;;;;;;;6.63;4.45;;;13.20;99.90;;;;;;2098949;28;20035;-73
2023/10/31 02:58:53;;;;;;;4.35;3.95;;;13.20;99.90;;;;;;2099337;28;20015;-73
2023/10/31 02:59:53;;;;;;;5.72;4.32;;;13.20;99.90;;;;;;2099556;28;20027;-73
2023/10/31 03:00:54;;;;;;;6.00;4.38;;;13.20;99.90;;;;;;2098455;28;20031;-73
2023/10/31 03:01:57;;;;;;;4.68;4.18;;;13.20;99.90;;;;;;2097626;28;20486;-73
2023/10/31 03:02:57;;;;;;;5.15;4.28;;;13.20;99.90;;;;;;2100284;28;20028;-74
2023/10/31 03:03:58;;;;;;;4.85;4.25;;;13.20;99.90;;;;;;2102689;28;20051;-73
2023/10/31 03:04:58;;;;;;;5.80;4.65;;;13.20;99.90;;;;;;2101985;28;20027;-73
2023/10/31 03:05:59;;;;;;;6.20;4.72;;;13.20;99.90;;;;;;2103092;28;20035;-73
2023/10/31 03:07:00;;;;;;;5.43;4.90;;;13.20;99.90;;;;;;2101913;28;20081;-73
2023/10/31 03:08:00;;;;;;;4.57;4.13;;;13.20;99.90;;;;;;2101416;28;20028;-74
2023/10/31 03:09:01;;;;;;;4.70;4.30;;;13.20;99.90;;;;;;2102304;28;20087;-74
2023/10/31 03:10:02;;;;;;;6.78;4.82;;;13.20;99.90;;;;;;2098243;28;20035;-73
2023/10/31 03:11:03;;;;;;;5.32;4.47;;;13.20;99.90;;;;;;2100658;28;20026;-73
2023/10/31 03:12:03;;;;;;;4.90;4.45;;;13.20;99.90;;;;;;2099308;28;20031;-73
2023/10/31 03:13:04;;;;;;;5.28;4.10;;;13.20;99.90;;;;;;2100795;28;20048;-73
2023/10/31 03:14:05;;;;;;;4.72;4.20;;;13.10;99.90;;;;;;2098965;28;20600;-74
2023/10/31 03:15:06;;;;;;;5.45;4.35;;;13.10;99.90;;;;;;2099173;28;20526;-74
2023/10/31 03:16:07;;;;;;;4.18;3.80;;;13.10;99.90;;;;;;2099519;28;20024;-74
2023/10/31 03:17:07;;;;;;;5.30;3.60;;;13.10;99.90;;;;;;2096533;28;20025;-73
2023/10/31 03:18:08;;;;;;;4.72;4.07;;;13.10;99.90;;;;;;2099214;28;20059;-73
2023/10/31 03:19:08;;;;;;;5.82;3.83;;;13.10;99.90;;;;;;2099785;28;20062;-72
2023/10/31 03:20:09;;;;;;;5.70;4.03;;;13.20;99.90;;;;;;2096012;28;20395;-73
2023/10/31 03:21:10;;;;;;;4.40;3.85;;;13.20;99.90;;;;;;2102981;28;20023;-73
2023/10/31 03:22:11;;;;;;;4.88;4.28;;;13.20;99.90;;;;;;2098707;28;20032;-73
2023/10/31 03:23:12;;;;;;;5.35;3.80;;;13.20;99.90;;;;;;2098772;28;20686;-73
2023/10/31 03:24:12;;;;;;;5.53;4.75;;;13.20;99.90;;;;;;2097505;28;20036;-73
2023/10/31 03:25:13;;;;;;;5.32;4.78;;;13.20;99.90;;;;;;2098250;28;20028;-73
2023/10/31 03:26:13;;;;;;;5.93;5.18;;;13.20;99.90;;;;;;2098260;28;20036;-73
2023/10/31 03:27:14;;;;;;;5.10;4.60;;;13.20;99.90;;;;;;2098875;28;20056;-73
2023/10/31 03:28:19;;;;;;;11.82;5.35;;;13.20;99.90;;;;;;2097516;28;20036;-74
2023/10/31 03:29:19;;;;;;;6.03;5.10;;;13.20;99.90;;;;;;2098973;28;20035;-74
2023/10/31 03:30:20;;;;;;;7.07;5.53;;;13.20;99.90;;;;;;2098961;28;20060;-73
2023/10/31 03:31:20;;;;;;;5.97;5.35;;;13.20;99.90;;;;;;2101901;28;20476;-73
2023/10/31 03:32:21;;;;;;;7.25;5.38;;;13.20;99.90;;;;;;2094348;28;20024;-73
2023/10/31 03:33:23;;;;;;;8.75;5.20;;;13.20;99.90;;;;;;2100326;28;20048;-73
2023/10/31 03:34:23;;;;;;;6.28;5.57;;;13.20;99.90;;;;;;2103176;28;20024;-73
2023/10/31 03:35:24;;;;;;;6.85;6.15;;;13.20;99.90;;;;;;2102088;28;20031;-73
2023/10/31 03:36:24;;;;;;;5.90;5.40;;;13.20;99.90;;;;;;2097647;28;20044;-72
2023/10/31 03:37:25;;;;;;;6.82;6.22;;;13.10;99.90;;;;;;2098105;28;20064;-73
2023/10/31 03:38:25;;;;;;;6.28;5.68;;;13.20;99.90;;;;;;2097856;28;20036;-73
2023/10/31 03:39:26;;;;;;;6.35;5.78;;;13.10;99.90;;;;;;2099195;28;20028;-73
2023/10/31 03:40:26;;;;;;;8.45;6.85;;;13.20;99.90;;;;;;2097936;28;20064;-73
2023/10/31 03:41:27;;;;;;;7.15;6.45;;;13.10;99.90;;;;;;2099929;28;20039;-73
2023/10/31 03:42:27;;;;;;;7.75;6.95;;;13.10;99.90;;;;;;2098224;28;20107;-73
2023/10/31 03:43:28;;;;;;;7.40;6.60;;;13.10;99.90;;;;;;2094185;28;20028;-73
2023/10/31 03:44:28;;;;;;;7.32;6.30;;;13.10;99.90;;;;;;2101124;28;20471;-72
2023/10/31 03:45:29;;;;;;;7.82;6.50;;;13.10;99.90;;;;;;2097502;28;20024;-73
2023/10/31 03:46:30;;;;;;;8.45;7.28;;;13.10;99.90;;;;;;2098780;28;20058;-74
2023/10/31 03:47:30;;;;;;;8.00;6.53;;;13.10;99.90;;;;;;2098659;28;20153;-73
2023/10/31 03:48:31;;;;;;;7.53;6.68;;;13.10;99.90;;;;;;2098008;28;20021;-74
2023/10/31 03:49:31;;;;;;;7.93;7.22;;;13.10;99.90;;;;;;2099776;28;20024;-73
2023/10/31 03:50:32;;;;;;;8.38;7.47;;;13.10;99.90;;;;;;2098764;28;20028;-73
2023/10/31 03:51:33;;;;;;;8.45;7.60;;;13.10;99.90;;;;;;2098251;28;20031;-74
2023/10/31 03:52:33;;;;;;;7.97;7.18;;;13.00;99.90;;;;;;2099260;28;20484;-73
2023/10/31 03:53:34;;;;;;;9.55;7.80;;;13.00;99.90;;;;;;2099846;28;20115;-73
2023/10/31 03:54:34;;;;;;;9.32;7.93;;;13.00;99.90;;;;;;2097101;28;20032;-73
2023/10/31 03:55:35;;;;;;;9.68;8.27;;;13.00;99.90;;;;;;2098505;28;20035;-73
2023/10/31 03:56:43;;;;;;;11.98;8.70;;;13.10;99.90;;;;;;2097753;28;20030;-73
2023/10/31 03:57:44;;;;;;;8.90;7.50;;;13.00;99.90;;;;;;2098566;28;20534;-73
2023/10/31 03:58:44;;;;;;;9.18;8.02;;;13.00;99.90;;;;;;2099336;28;20391;-73
2023/10/31 03:59:45;;;;;;;9.07;7.97;;;13.00;99.90;;;;;;2097296;28;20104;-73
2023/10/31 04:00:45;;;;;;;9.32;7.93;;;13.00;99.90;;;;;;2101064;28;20035;-73
2023/10/31 04:01:46;;;;;;;8.93;8.02;;;13.00;99.90;;;;;;2098814;28;20632;-73
2023/10/31 04:02:46;;;;;;;8.35;7.47;;;13.10;99.90;;;;;;2097763;28;20028;-73
2023/10/31 04:03:47;;;;;;;10.93;8.65;;;13.10;99.90;;;;;;2105400;28;20754;-73
2023/10/31 04:04:47;;;;;;;9.38;7.65;;;13.00;99.90;;;;;;2097864;28;20091;-73
2023/10/31 04:05:48;;;;;;;8.60;7.63;;;13.10;99.90;;;;;;2099157;28;20078;-73
2023/10/31 04:06:48;;;;;;;7.88;7.13;;;13.00;99.90;;;;;;2098558;28;20606;-73
2023/10/31 04:07:49;;;;;;;7.40;6.20;;;13.00;99.90;;;;;;2097286;28;20024;-73
2023/10/31 04:08:50;;;;;;;7.35;6.65;;;13.00;99.90;;;;;;2098440;28;20093;-73
2023/10/31 04:09:50;;;;;;;8.75;7.05;;;13.00;99.90;;;;;;2097246;28;20074;-73
2023/10/31 04:10:51;;;;;;;7.72;6.93;;;13.00;99.90;;;;;;2098638;28;20073;-73
2023/10/31 04:11:51;;;;;;;7.30;6.57;;;13.00;99.90;;;;;;2097728;28;20028;-73
2023/10/31 04:12:52;;;;;;;6.80;5.60;;;13.00;99.90;;;;;;2098892;28;20810;-73
2023/10/31 04:13:53;;;;;;;6.80;6.10;;;13.00;99.90;;;;;;2097433;28;20089;-73
2023/10/31 04:14:53;;;;;;;7.32;6.57;;;13.00;99.90;;;;;;2098992;28;20016;-73
2023/10/31 04:15:54;;;;;;;8.48;5.72;;;13.00;99.90;;;;;;2101075;28;20021;-73
2023/10/31 04:16:54;;;;;;;9.30;5.43;;;13.00;99.90;;;;;;2097148;28;20028;-73
2023/10/31 04:17:55;;;;;;;7.05;5.63;;;13.00;99.90;;;;;;2098466;28;20044;-73
2023/10/31 04:18:55;;;;;;;7.15;5.90;;;13.00;99.90;;;;;;2098832;28;20031;-73
2023/10/31 04:19:56;;;;;;;6.20;5.10;;;13.00;99.90;;;;;;2099481;28;20021;-74
2023/10/31 04:20:56;;;;;;;4.82;4.40;;;13.00;99.90;;;;;;2099118;28;20017;-73
2023/10/31 04:21:57;;;;;;;5.70;4.45;;;13.00;99.90;;;;;;2098093;28;20032;-73
2023/10/31 04:22:57;;;;;;;7.55;5.10;;;13.00;99.90;;;;;;2097494;28;20032;-72
2023/10/31 04:23:58;;;;;;;5.65;5.03;;;13.00;99.90;;;;;;2096809;28;20086;-73
2023/10/31 04:24:59;;;;;;;7.63;4.95;;;13.00;99.90;;;;;;2096276;28;20062;-73
2023/10/31 04:25:59;;;;;;;5.72;4.82;;;13.00;99.90;;;;;;2098421;28;20425;-73
2023/10/31 04:27:00;;;;;;;5.20;4.68;;;13.00;99.90;;;;;;2099094;28;20024;-73
2023/10/31 04:28:03;;;;;;;5.55;4.90;;;13.00;99.90;;;;;;2097501;28;20036;-73
2023/10/31 04:29:03;;;;;;;6.93;5.20;;;13.00;99.90;;;;;;2097658;28;20036;-73
2023/10/31 04:30:04;;;;;;;7.97;5.40;;;13.00;99.90;;;;;;2097316;28;20032;-73
2023/10/31 04:31:05;;;;;;;5.55;4.95;;;13.00;99.90;;;;;;2098539;28;20088;-73
2023/10/31 04:32:06;;;;;;;5.97;5.20;;;13.00;99.90;;;;;;2097722;28;20016;-74
2023/10/31 04:33:06;;;;;;;6.00;5.18;;;13.00;99.90;;;;;;2096897;28;20020;-73
2023/10/31 04:34:08;;;;;;;6.03;5.43;;;13.00;99.90;;;;;;2098254;28;20051;-74
2023/10/31 04:35:08;;;;;;;6.00;5.30;;;13.00;99.90;;;;;;2098265;28;20549;-73
2023/10/31 04:36:10;;;;;;;7.13;5.72;;;13.00;99.90;;;;;;2097690;28;20547;-73
2023/10/31 04:37:10;;;;;;;6.15;5.10;;;13.00;99.90;;;;;;2098150;28;20020;-73
2023/10/31 04:38:11;;;;;;;7.18;5.22;;;13.00;99.90;;;;;;2097832;28;20028;-73
2023/10/31 04:39:11;;;;;;;6.13;5.50;;;13.00;99.90;;;;;;2097752;28;20021;-73
2023/10/31 04:40:12;;;;;;;6.97;5.82;;;13.00;99.90;;;;;;2096916;28;20039;-72
2023/10/31 04:41:13;;;;;;;7.53;5.88;;;13.00;99.90;;;;;;2099039;28;20030;-73
2023/10/31 04:42:14;;;;;;;9.13;5.75;;;13.00;99.90;;;;;;2098235;28;20071;-73
2023/10/31 04:43:14;;;;;;;7.18;5.40;;;13.00;99.90;;;;;;2098313;28;20024;-73
2023/10/31 04:44:16;;;;;;;6.43;5.72;;;13.00;99.90;;;;;;2098382;28;20543;-73
2023/10/31 04:45:17;;;;;;;6.22;5.63;;;13.10;99.90;;;;;;2096911;28;20032;-73
2023/10/31 04:46:17;;;;;;;6.50;5.90;;;13.10;99.90;;;;;;2098687;28;20024;-74
2023/10/31 04:47:18;;;;;;;7.60;5.70;;;13.10;99.90;;;;;;2098630;28;20020;-73
2023/10/31 04:48:18;;;;;;;7.45;6.00;;;13.10;99.90;;;;;;2096620;28;20059;-73
2023/10/31 04:49:20;;;;;;;6.13;5.53;;;13.10;99.90;;;;;;2099823;28;20024;-74
2023/10/31 04:50:20;;;;;;;6.57;5.88;;;13.10;99.90;;;;;;2098546;28;20613;-74
2023/10/31 04:51:21;;;;;;;6.78;6.07;;;13.10;99.90;;;;;;2098383;28;20661;-73
2023/10/31 04:52:22;;;;;;;7.18;5.53;;;13.10;99.90;;;;;;2097718;28;20028;-73
2023/10/31 04:53:23;;;;;;;6.43;5.43;;;13.10;99.90;;;;;;2096675;28;20032;-73
2023/10/31 04:54:24;;;;;;;6.55;5.57;;;13.10;99.90;;;;;;2099563;28;20086;-73
2023/10/31 04:55:24;;;;;;;6.80;5.15;;;13.10;99.90;;;;;;2100778;28;20371;-73
2023/10/31 04:56:25;;;;;;;6.95;5.80;;;13.10;99.90;;;;;;2096515;28;20025;-73
2023/10/31 04:57:25;;;;;;;5.85;5.03;;;13.10;99.90;;;;;;2099563;28;20113;-73
2023/10/31 04:58:26;;;;;;;5.55;5.05;;;13.10;99.90;;;;;;2096244;28;20472;-73
2023/10/31 04:59:26;;;;;;;5.40;4.78;;;13.10;99.90;;;;;;2098046;28;20127;-72
2023/10/31 05:00:27;;;;;;;7.10;5.47;;;13.10;99.90;;;;;;2098516;28;20150;-73
2023/10/31 05:01:27;;;;;;;6.45;5.38;;;13.10;99.90;;;;;;2098555;28;20138;-72
2023/10/31 05:02:28;;;;;;;4.90;4.40;;;13.00;99.90;;;;;;2096408;28;20121;-73
2023/10/31 05:03:29;;;;;;;6.40;4.75;;;13.00;99.90;;;;;;2101099;28;20115;-73
2023/10/31 05:04:29;;;;;;;5.18;4.65;;;13.00;99.90;;;;;;2101754;28;20051;-73
2023/10/31 05:05:30;;;;;;;5.65;5.10;;;13.00;99.90;;;;;;2096840;28;20386;-73
2023/10/31 05:06:30;;;;;;;5.15;4.70;;;13.00;99.90;;;;;;2098442;28;20124;-73
2023/10/31 05:07:32;;;;;;;5.68;5.18;;;13.00;99.90;;;;;;2097071;28;20074;-74
2023/10/31 05:08:33;;;;;;;6.10;5.25;;;13.00;99.90;;;;;;2095387;28;20032;-73
2023/10/31 05:09:34;;;;;;;5.47;4.97;;;13.00;99.90;;;;;;2097820;28;20032;-73
2023/10/31 05:10:34;;;;;;;7.57;5.03;;;13.00;99.90;;;;;;2097944;28;20025;-73
2023/10/31 05:11:35;;;;;;;7.28;5.93;;;13.00;99.90;;;;;;2099129;28;20063;-74
2023/10/31 05:12:36;;;;;;;5.75;5.22;;;13.00;99.90;;;;;;2099435;28;20039;-73
2023/10/31 05:13:38;;;;;;;7.55;5.70;;;13.00;99.90;;;;;;2097347;28;20648;-73
2023/10/31 05:14:40;;;;;;;6.40;5.50;;;13.00;99.90;;;;;;2098664;28;20379;-72
2023/10/31 05:15:41;;;;;;;6.13;5.53;;;13.00;99.90;;;;;;2098769;28;20036;-73